Time;durP1;ratioP1;P1;durP2;ratioP2;P2;SDS_P1;SDS_P2;PMS_P1;PMS_P2;Temp;Humidity;BMP_temperature;BMP_pressure;BME280_temperature;BME280_humidity;BME280_pressure;Samples;Min_cycle;Max_cycle;Signal;HPM_P1;HPM_P2
2022/03/26 00:00:33;;;;;;;41.27;28.33;;;8.60;1.00;;;;;;5073993;28;20436;-63
2022/03/26 00:02:59;;;;;;;40.10;27.80;;;;;;;;;;5074049;28;20241;-61
2022/03/26 00:05:24;;;;;;;44.40;28.20;;;8.50;1.00;;;;;;5073985;28;20760;-62
2022/03/26 00:07:50;;;;;;;42.90;29.43;;;8.50;1.00;;;;;;5073823;28;20465;-62
2022/03/26 00:10:16;;;;;;;37.30;28.20;;;8.50;1.00;;;;;;5039267;28;20199;-60
2022/03/26 00:12:42;;;;;;;43.93;28.77;;;8.40;1.00;;;;;;5074111;28;20188;-61
2022/03/26 00:15:08;;;;;;;41.17;28.17;;;8.40;1.00;;;;;;5073759;28;20441;-61
2022/03/26 00:17:34;;;;;;;43.70;28.20;;;8.40;1.00;;;;;;5072686;28;20445;-62
2022/03/26 00:20:01;;;;;;;40.73;26.40;;;8.30;1.00;;;;;;5073525;28;20441;-61
2022/03/26 00:22:26;;;;;;;38.20;27.53;;;8.30;1.00;;;;;;5072151;28;20437;-61
2022/03/26 00:24:52;;;;;;;37.97;28.00;;;8.30;1.00;;;;;;5073331;28;20476;-62
2022/03/26 00:27:18;;;;;;;40.37;26.90;;;8.20;1.00;;;;;;5072215;28;20254;-60
2022/03/26 00:29:44;;;;;;;40.83;26.93;;;8.10;1.00;;;;;;5073678;28;21010;-61
2022/03/26 00:32:11;;;;;;;39.43;29.07;;;8.20;1.00;;;;;;5073372;28;20260;-61
2022/03/26 00:34:36;;;;;;;43.60;29.23;;;8.10;1.00;;;;;;5073139;28;20437;-62
2022/03/26 00:37:02;;;;;;;41.73;27.40;;;8.10;1.00;;;;;;5073110;28;21073;-61
2022/03/26 00:39:28;;;;;;;39.67;27.40;;;8.10;1.00;;;;;;5073124;28;20198;-61
2022/03/26 00:41:53;;;;;;;41.03;26.80;;;8.10;1.00;;;;;;5073373;28;20260;-61
2022/03/26 00:44:20;;;;;;;43.73;29.27;;;8.10;1.00;;;;;;5055111;28;20250;-60
2022/03/26 00:46:46;;;;;;;42.27;28.80;;;8.00;1.00;;;;;;5073189;28;20194;-60
2022/03/26 00:49:13;;;;;;;41.07;28.00;;;8.00;1.00;;;;;;5069853;28;20441;-61
2022/03/26 00:51:39;;;;;;;44.37;28.13;;;8.10;1.00;;;;;;5073031;28;20442;-62
2022/03/26 00:54:04;;;;;;;43.03;27.50;;;8.10;1.00;;;;;;5072899;28;20448;-60
2022/03/26 00:56:30;;;;;;;37.90;26.00;;;8.00;1.00;;;;;;5073136;28;20211;-60
2022/03/26 00:58:56;;;;;;;45.63;28.90;;;8.00;1.00;;;;;;5073212;28;20641;-61
2022/03/26 01:01:21;;;;;;;44.97;29.17;;;8.00;1.00;;;;;;5072516;28;20204;-63
2022/03/26 01:03:47;;;;;;;40.70;28.23;;;8.00;1.00;;;;;;5072393;28;20261;-60
2022/03/26 01:06:14;;;;;;;42.67;27.47;;;8.00;1.00;;;;;;5072415;28;20187;-59
2022/03/26 01:08:39;;;;;;;44.57;29.00;;;7.80;1.00;;;;;;5072539;28;20253;-61
2022/03/26 01:11:05;;;;;;;42.10;28.03;;;7.70;1.00;;;;;;5072711;28;20425;-62
2022/03/26 01:13:32;;;;;;;43.63;27.30;;;7.80;1.00;;;;;;5072399;28;20198;-61
2022/03/26 01:15:57;;;;;;;45.90;29.80;;;7.80;1.00;;;;;;5072994;28;20210;-59
2022/03/26 01:18:23;;;;;;;41.00;27.80;;;7.70;1.00;;;;;;5070385;28;20485;-61
2022/03/26 01:20:49;;;;;;;42.90;26.47;;;7.70;1.00;;;;;;5072652;28;20188;-60
2022/03/26 01:23:19;;;;;;;50.37;28.47;;;7.70;1.00;;;;;;5072452;28;20230;-62
2022/03/26 01:25:45;;;;;;;44.20;29.77;;;7.60;1.00;;;;;;5072334;28;20190;-61
2022/03/26 01:28:10;;;;;;;38.60;27.40;;;7.70;1.00;;;;;;5072496;28;20433;-61
2022/03/26 01:30:36;;;;;;;44.37;26.90;;;7.60;1.00;;;;;;5072168;28;20450;-61
2022/03/26 01:33:01;;;;;;;37.40;26.00;;;7.70;1.00;;;;;;5072363;28;20179;-60
2022/03/26 01:35:27;;;;;;;36.53;26.67;;;7.70;1.00;;;;;;5072557;28;20214;-60
2022/03/26 01:37:52;;;;;;;35.00;25.40;;;7.60;1.00;;;;;;5072231;28;20188;-62
2022/03/26 01:40:18;;;;;;;39.03;25.87;;;7.60;1.00;;;;;;5072131;28;20191;-60
2022/03/26 01:42:43;;;;;;;41.80;26.87;;;7.50;1.00;;;;;;5053998;28;20612;-62
2022/03/26 01:45:13;;;;;;;41.73;25.53;;;7.60;1.00;;;;;;5072187;28;20290;-60
2022/03/26 01:47:39;;;;;;;36.17;22.10;;;7.50;1.00;;;;;;5066653;28;20188;-60
2022/03/26 01:50:05;;;;;;;36.17;25.43;;;7.50;1.00;;;;;;5072203;28;20954;-62
2022/03/26 01:52:30;;;;;;;31.97;23.00;;;7.50;1.00;;;;;;5072264;28;20506;-61
2022/03/26 01:54:57;;;;;;;33.33;23.37;;;7.50;1.00;;;;;;5053888;28;20441;-59
2022/03/26 01:57:24;;;;;;;33.63;23.37;;;7.50;1.00;;;;;;5071976;28;20679;-60
2022/03/26 01:59:50;;;;;;;34.40;23.40;;;7.40;1.00;;;;;;5071400;28;20438;-62
2022/03/26 02:02:16;;;;;;;36.37;23.50;;;7.30;1.00;;;;;;5053512;28;20472;-60
2022/03/26 02:04:41;;;;;;;34.17;22.53;;;7.40;1.00;;;;;;5071368;28;20652;-61
2022/03/26 02:07:07;;;;;;;39.67;24.97;;;7.40;1.00;;;;;;5071227;28;20465;-61
2022/03/26 02:09:35;;;;;;;35.87;25.17;;;7.40;1.00;;;;;;5053740;28;20199;-61
2022/03/26 02:12:22;;;;;;;29.53;22.17;;;7.30;1.00;;;;;;5071430;28;20249;-61
2022/03/26 02:14:49;;;;;;;38.70;26.00;;;7.30;1.00;;;;;;5070634;28;20514;-61
2022/03/26 02:17:16;;;;;;;45.40;24.90;;;7.30;1.00;;;;;;5065966;28;20433;-63
2022/03/26 02:19:50;;;;;;;33.40;23.93;;;7.30;1.00;;;;;;5071279;28;20437;-61
2022/03/26 02:22:15;;;;;;;37.63;23.97;;;7.20;1.00;;;;;;5052919;28;20438;-62
2022/03/26 02:24:41;;;;;;;37.07;22.80;;;7.20;1.00;;;;;;5071388;28;20951;-61
2022/03/26 02:27:08;;;;;;;38.00;24.30;;;7.30;1.00;;;;;;5071327;28;20183;-61
2022/03/26 02:29:34;;;;;;;37.83;24.37;;;;;;;;;;5071485;28;20664;-60
2022/03/26 02:31:59;;;;;;;35.80;24.83;;;7.20;1.00;;;;;;5071334;28;20465;-60
2022/03/26 02:34:26;;;;;;;38.20;25.23;;;7.20;1.00;;;;;;5071124;28;20463;-62
2022/03/26 02:36:56;;;;;;;36.33;24.27;;;7.10;1.00;;;;;;5071064;28;20442;-61
2022/03/26 02:39:21;;;;;;;36.03;24.47;;;7.00;1.00;;;;;;5070934;28;20448;-60
2022/03/26 02:41:47;;;;;;;35.13;22.30;;;7.00;1.00;;;;;;5071194;28;20540;-60
2022/03/26 02:44:12;;;;;;;34.83;23.53;;;7.00;1.00;;;;;;5071087;28;20302;-62
2022/03/26 02:46:38;;;;;;;38.30;24.93;;;7.00;1.00;;;;;;5070312;28;20213;-61
2022/03/26 02:49:04;;;;;;;35.67;21.73;;;7.00;1.00;;;;;;5066243;28;20191;-61
2022/03/26 02:51:29;;;;;;;33.33;22.37;;;7.00;1.00;;;;;;5071050;28;20655;-60
2022/03/26 02:53:55;;;;;;;35.23;22.87;;;7.00;1.00;;;;;;5070838;28;20182;-60
2022/03/26 02:56:21;;;;;;;33.70;23.90;;;7.00;1.00;;;;;;5070748;28;20580;-61
2022/03/26 02:58:49;;;;;;;36.30;23.97;;;7.00;1.00;;;;;;5071101;28;20187;-62
2022/03/26 03:01:15;;;;;;;35.27;22.67;;;6.90;1.00;;;;;;5070746;28;20187;-62
2022/03/26 03:03:40;;;;;;;38.67;24.50;;;6.90;1.00;;;;;;5070770;28;20457;-61
2022/03/26 03:06:06;;;;;;;35.53;23.00;;;6.80;1.00;;;;;;5070643;28;20231;-60
2022/03/26 03:08:33;;;;;;;34.63;23.37;;;6.80;1.00;;;;;;5070995;28;20202;-60
2022/03/26 03:10:59;;;;;;;38.53;23.33;;;6.70;1.00;;;;;;5070668;28;20194;-60
2022/03/26 03:13:24;;;;;;;34.40;24.80;;;6.60;1.00;;;;;;5070677;28;20445;-62
2022/03/26 03:15:50;;;;;;;34.50;22.33;;;6.60;1.00;;;;;;5070881;28;20228;-60
2022/03/26 03:18:16;;;;;;;37.93;22.87;;;6.70;1.00;;;;;;5067471;28;20274;-61
2022/03/26 03:20:42;;;;;;;32.97;21.90;;;6.60;1.00;;;;;;5052777;28;20434;-60
2022/03/26 03:23:07;;;;;;;35.30;23.40;;;6.60;1.00;;;;;;5070676;28;20779;-61
2022/03/26 03:25:33;;;;;;;35.67;21.10;;;6.60;1.00;;;;;;5070095;28;20280;-60
2022/03/26 03:27:59;;;;;;;35.60;23.20;;;;;;;;;;5052638;28;20514;-62
2022/03/26 03:30:26;;;;;;;36.30;21.97;;;6.40;1.00;;;;;;5070219;28;20188;-60
2022/03/26 03:32:52;;;;;;;36.90;21.20;;;6.50;1.00;;;;;;5070603;28;20532;-62
2022/03/26 03:35:18;;;;;;;32.80;23.20;;;6.40;1.00;;;;;;5070118;28;20836;-61
2022/03/26 03:37:44;;;;;;;30.37;21.33;;;;;;;;;;5070155;28;20495;-62
2022/03/26 03:40:10;;;;;;;36.73;22.93;;;6.30;1.00;;;;;;5065304;28;20188;-60
2022/03/26 03:42:36;;;;;;;36.30;22.60;;;6.40;1.00;;;;;;5070033;28;20854;-62
2022/03/26 03:45:03;;;;;;;36.33;25.40;;;6.40;1.00;;;;;;5070213;28;20592;-60
2022/03/26 03:47:29;;;;;;;32.90;22.47;;;6.40;1.00;;;;;;5069968;28;20214;-60
2022/03/26 03:49:55;;;;;;;34.37;23.70;;;;;;;;;;5070245;28;20480;-61
2022/03/26 03:52:20;;;;;;;40.63;23.17;;;6.40;1.00;;;;;;5070194;28;20236;-62
2022/03/26 03:54:46;;;;;;;40.80;24.23;;;6.30;1.00;;;;;;5070142;28;20532;-61
2022/03/26 03:57:11;;;;;;;36.63;24.50;;;6.30;1.00;;;;;;5070264;28;20571;-60
2022/03/26 03:59:41;;;;;;;32.07;23.03;;;6.30;1.00;;;;;;5070038;28;20266;-60
2022/03/26 04:02:09;;;;;;;36.07;22.87;;;6.30;1.00;;;;;;5070033;28;20275;-61
2022/03/26 04:04:36;;;;;;;40.87;23.90;;;6.20;1.00;;;;;;5051649;28;20493;-61
2022/03/26 04:07:02;;;;;;;34.93;25.17;;;6.20;1.00;;;;;;5069974;28;20473;-62
2022/03/26 04:09:28;;;;;;;40.93;24.40;;;6.20;1.00;;;;;;5069785;28;20503;-61
2022/03/26 04:11:53;;;;;;;44.07;27.17;;;6.20;1.00;;;;;;5069747;28;20438;-60
2022/03/26 04:14:19;;;;;;;36.00;24.00;;;6.30;1.00;;;;;;5069773;28;20187;-60
2022/03/26 04:16:44;;;;;;;36.80;23.33;;;6.30;1.00;;;;;;5069706;28;20275;-61
2022/03/26 04:19:11;;;;;;;39.73;24.40;;;6.20;1.00;;;;;;5070039;28;20210;-61
2022/03/26 04:21:38;;;;;;;34.27;23.53;;;6.20;1.00;;;;;;5069715;28;20176;-60
2022/03/26 04:24:03;;;;;;;38.00;25.43;;;6.20;1.00;;;;;;5069801;28;20462;-60
2022/03/26 04:26:29;;;;;;;34.50;25.50;;;6.30;1.00;;;;;;5069849;28;20428;-61
2022/03/26 04:28:54;;;;;;;38.90;25.00;;;6.20;1.00;;;;;;5069625;28;20191;-61
2022/03/26 04:31:20;;;;;;;37.70;22.37;;;6.20;1.00;;;;;;5069613;28;20179;-59
2022/03/26 04:33:45;;;;;;;37.50;24.73;;;6.20;1.00;;;;;;5069441;28;20194;-62
2022/03/26 04:36:11;;;;;;;37.63;24.30;;;6.10;1.00;;;;;;5069939;28;20187;-62
2022/03/26 04:38:36;;;;;;;41.43;25.10;;;6.10;1.00;;;;;;5071743;28;20199;-62
2022/03/26 04:41:05;;;;;;;36.97;24.40;;;6.10;1.00;;;;;;5068954;28;20183;-60
2022/03/26 04:43:31;;;;;;;38.87;24.83;;;6.10;1.00;;;;;;5073241;28;20210;-60
2022/03/26 04:45:56;;;;;;;35.23;23.63;;;6.10;1.00;;;;;;5072939;28;20429;-60
2022/03/26 04:48:22;;;;;;;39.70;23.57;;;6.20;1.00;;;;;;5073021;28;20175;-60
2022/03/26 04:50:47;;;;;;;41.07;26.03;;;6.10;1.00;;;;;;5072714;28;20187;-60
2022/03/26 04:53:13;;;;;;;43.00;24.80;;;6.10;1.00;;;;;;5073029;28;20215;-60
2022/03/26 04:55:39;;;;;;;36.70;26.00;;;6.10;1.00;;;;;;5072894;28;20258;-61
2022/03/26 04:58:04;;;;;;;37.63;24.87;;;6.10;1.00;;;;;;5072856;28;20449;-62
2022/03/26 05:00:30;;;;;;;40.07;24.73;;;;;;;;;;5072810;28;20183;-62
2022/03/26 05:02:56;;;;;;;32.77;23.80;;;6.10;1.00;;;;;;5072602;28;20207;-60
2022/03/26 05:05:22;;;;;;;41.00;25.47;;;6.00;1.00;;;;;;5072635;28;20469;-61
2022/03/26 05:07:47;;;;;;;33.70;22.20;;;6.00;1.00;;;;;;5072417;28;20227;-61
2022/03/26 05:10:22;;;;;;;37.50;25.07;;;6.10;1.00;;;;;;5072999;28;20221;-60
2022/03/26 05:12:49;;;;;;;38.83;25.40;;;6.00;1.00;;;;;;5072800;28;20441;-61
2022/03/26 05:15:16;;;;;;;32.73;22.47;;;6.00;1.00;;;;;;5072829;28;20433;-63
2022/03/26 05:17:41;;;;;;;38.80;24.37;;;6.10;1.00;;;;;;5072653;28;20437;-60
2022/03/26 05:20:09;;;;;;;38.90;24.53;;;6.10;1.00;;;;;;5072302;28;20502;-61
2022/03/26 05:22:35;;;;;;;37.53;24.67;;;;;;;;;;5072358;28;20205;-61
2022/03/26 05:25:01;;;;;;;42.30;24.27;;;6.00;1.00;;;;;;5072144;28;20507;-60
2022/03/26 05:27:27;;;;;;;39.70;25.13;;;6.10;1.00;;;;;;5072496;28;20947;-62
2022/03/26 05:29:52;;;;;;;35.93;23.30;;;6.10;1.00;;;;;;5072484;28;20202;-61
2022/03/26 05:32:19;;;;;;;37.90;23.60;;;;;;;;;;5072299;28;20218;-62
2022/03/26 05:34:45;;;;;;;36.70;23.00;;;6.20;1.00;;;;;;5072252;28;20195;-61
2022/03/26 05:37:11;;;;;;;39.80;24.43;;;6.20;1.00;;;;;;5072225;28;20441;-61
2022/03/26 05:39:37;;;;;;;38.83;24.17;;;6.30;1.00;;;;;;5072387;28;20422;-61
2022/03/26 05:42:03;;;;;;;36.53;23.27;;;6.30;1.00;;;;;;5072000;28;21091;-62
2022/03/26 05:44:28;;;;;;;32.27;22.30;;;6.40;1.00;;;;;;5071903;28;20601;-61
2022/03/26 05:46:54;;;;;;;36.40;23.90;;;;;;;;;;5071998;28;20445;-60
2022/03/26 05:49:21;;;;;;;39.63;24.50;;;6.40;1.00;;;;;;5070942;28;20729;-62
2022/03/26 05:51:47;;;;;;;38.37;23.50;;;6.40;1.00;;;;;;5054106;28;20438;-60
2022/03/26 05:54:13;;;;;;;32.67;21.97;;;6.40;1.00;;;;;;5071777;28;20445;-61
2022/03/26 05:56:39;;;;;;;33.07;22.00;;;6.50;1.00;;;;;;5071984;28;20463;-60
2022/03/26 05:59:12;;;;;;;36.67;24.60;;;6.60;1.00;;;;;;5071680;28;20472;-61
2022/03/26 06:01:38;;;;;;;33.80;22.40;;;6.60;1.00;;;;;;5071676;28;20529;-60
2022/03/26 06:04:04;;;;;;;35.70;25.13;;;6.70;1.00;;;;;;5071593;28;20457;-61
2022/03/26 06:06:30;;;;;;;38.63;24.07;;;;;;;;;;5071513;28;20225;-61
2022/03/26 06:08:56;;;;;;;36.07;22.00;;;6.80;1.00;;;;;;5071625;28;20204;-61
2022/03/26 06:11:23;;;;;;;37.97;23.40;;;6.90;1.00;;;;;;5071516;28;20472;-60
2022/03/26 06:13:49;;;;;;;31.80;22.27;;;7.00;1.00;;;;;;5071658;28;20180;-60
2022/03/26 06:16:14;;;;;;;32.57;22.90;;;7.00;1.00;;;;;;5071209;28;20465;-61
2022/03/26 06:18:40;;;;;;;38.90;25.97;;;7.20;1.00;;;;;;5071416;28;20190;-61
2022/03/26 06:21:05;;;;;;;35.97;22.83;;;7.20;1.00;;;;;;5071279;28;20214;-61
2022/03/26 06:23:34;;;;;;;36.53;24.17;;;7.30;1.00;;;;;;5071086;28;20226;-61
2022/03/26 06:25:59;;;;;;;38.10;23.93;;;7.40;1.00;;;;;;5068619;28;20614;-62
2022/03/26 06:28:25;;;;;;;38.80;24.83;;;7.50;1.00;;;;;;5068715;28;20463;-62
2022/03/26 06:30:51;;;;;;;33.20;22.93;;;7.50;1.00;;;;;;5071004;28;20196;-61
2022/03/26 06:33:18;;;;;;;38.80;24.53;;;7.70;1.00;;;;;;5070792;28;20488;-60
2022/03/26 06:35:44;;;;;;;35.03;24.30;;;7.80;1.00;;;;;;5070911;28;20191;-61
2022/03/26 06:38:10;;;;;;;34.37;23.30;;;7.90;1.00;;;;;;5071020;28;20441;-61
2022/03/26 06:40:37;;;;;;;34.70;23.00;;;7.90;1.00;;;;;;5070990;28;20448;-61
2022/03/26 06:43:03;;;;;;;35.60;23.90;;;8.00;1.00;;;;;;5071240;28;20529;-62
2022/03/26 06:45:29;;;;;;;31.23;23.10;;;;;;;;;;5070704;28;20527;-61
2022/03/26 06:47:55;;;;;;;39.90;26.07;;;8.20;1.00;;;;;;5070487;28;20866;-61
2022/03/26 06:50:21;;;;;;;34.23;24.30;;;8.20;1.00;;;;;;5070602;28;20442;-61
2022/03/26 06:52:46;;;;;;;41.97;24.37;;;8.40;1.00;;;;;;5050494;28;20188;-60
2022/03/26 06:55:12;;;;;;;32.97;24.00;;;8.50;1.00;;;;;;5070725;28;20542;-61
2022/03/26 06:57:38;;;;;;;30.10;23.47;;;8.60;1.00;;;;;;5070526;28;20191;-60
2022/03/26 07:00:05;;;;;;;38.30;25.73;;;8.60;1.00;;;;;;5052548;28;20639;-62
2022/03/26 07:02:31;;;;;;;34.30;23.60;;;8.80;1.00;;;;;;5069079;28;20866;-62
2022/03/26 07:04:56;;;;;;;37.67;25.70;;;8.90;1.00;;;;;;5070554;28;20561;-60
2022/03/26 07:07:22;;;;;;;31.57;23.23;;;9.10;1.00;;;;;;5070606;28;20680;-62
2022/03/26 07:09:47;;;;;;;34.00;24.30;;;9.10;1.00;;;;;;5070615;28;20179;-62
2022/03/26 07:12:13;;;;;;;33.63;24.30;;;;;;;;;;5070753;28;20572;-61
2022/03/26 07:14:39;;;;;;;31.13;23.13;;;9.20;1.00;;;;;;5070393;28;20192;-60
2022/03/26 07:17:05;;;;;;;36.13;24.60;;;9.50;1.00;;;;;;5070544;28;20741;-63
2022/03/26 07:19:31;;;;;;;37.60;23.90;;;9.60;1.00;;;;;;5070429;28;20199;-61
2022/03/26 07:21:57;;;;;;;28.30;23.20;;;9.60;1.00;;;;;;5070256;28;20429;-60
2022/03/26 07:24:22;;;;;;;32.27;24.07;;;9.90;1.00;;;;;;5070402;28;20688;-62
2022/03/26 07:26:48;;;;;;;38.30;25.97;;;10.00;1.00;;;;;;5070357;28;20179;-60
2022/03/26 07:29:13;;;;;;;38.47;25.47;;;10.00;1.00;;;;;;5070173;28;20240;-62
2022/03/26 07:31:39;;;;;;;40.90;26.53;;;10.20;1.00;;;;;;5069958;28;20644;-61
2022/03/26 07:34:04;;;;;;;32.10;24.10;;;10.30;1.00;;;;;;5070302;28;20187;-62
2022/03/26 07:36:32;;;;;;;35.70;25.70;;;10.50;1.00;;;;;;5070095;28;20179;-62
2022/03/26 07:38:58;;;;;;;45.27;27.03;;;10.60;1.00;;;;;;5069960;28;20185;-61
2022/03/26 07:41:23;;;;;;;37.27;24.90;;;10.70;1.00;;;;;;5070203;28;20491;-62
2022/03/26 07:43:49;;;;;;;35.83;25.23;;;10.90;1.00;;;;;;5070080;28;20481;-62
2022/03/26 07:46:18;;;;;;;36.43;25.60;;;10.90;1.00;;;;;;5069824;28;20194;-61
2022/03/26 07:48:44;;;;;;;37.03;26.33;;;11.00;1.00;;;;;;5070213;28;20179;-61
2022/03/26 07:51:10;;;;;;;37.10;24.37;;;11.20;1.00;;;;;;5069996;28;20434;-61
2022/03/26 07:53:36;;;;;;;42.57;25.70;;;11.50;1.00;;;;;;5069917;28;20421;-62
2022/03/26 07:56:01;;;;;;;36.00;26.70;;;11.50;1.00;;;;;;5069949;28;20429;-62
2022/03/26 07:58:27;;;;;;;35.80;25.83;;;;;;;;;;5070114;28;20180;-62
2022/03/26 08:00:53;;;;;;;38.33;26.23;;;12.20;1.00;;;;;;5070391;28;20183;-61
2022/03/26 08:03:18;;;;;;;37.13;26.60;;;12.20;1.00;;;;;;5069916;28;20946;-60
2022/03/26 08:05:44;;;;;;;33.33;25.57;;;12.40;1.00;;;;;;5070058;28;20211;-61
2022/03/26 08:08:10;;;;;;;39.10;26.10;;;12.70;1.00;;;;;;5069686;28;20535;-60
2022/03/26 08:10:36;;;;;;;35.13;27.07;;;12.90;1.00;;;;;;5069988;28;20207;-63
2022/03/26 08:13:02;;;;;;;38.80;24.87;;;13.00;1.00;;;;;;5071623;28;20429;-61
2022/03/26 08:15:27;;;;;;;39.87;26.83;;;13.30;1.00;;;;;;5073934;28;20498;-61
2022/03/26 08:17:53;;;;;;;34.57;25.90;;;13.30;1.00;;;;;;5069183;28;20196;-61
2022/03/26 08:20:18;;;;;;;36.33;24.10;;;13.40;1.00;;;;;;5074077;28;20510;-63
2022/03/26 08:22:44;;;;;;;34.60;25.87;;;13.40;1.00;;;;;;5073716;28;20191;-63
2022/03/26 08:25:10;;;;;;;35.17;25.37;;;13.30;1.00;;;;;;5055610;28;20653;-63
2022/03/26 08:27:38;;;;;;;37.50;26.40;;;13.40;1.00;;;;;;5073800;28;20175;-62
2022/03/26 08:30:07;;;;;;;39.57;26.83;;;13.40;1.00;;;;;;5073636;28;20440;-62
2022/03/26 08:32:33;;;;;;;38.17;25.87;;;;;;;;;;5073734;28;20927;-62
2022/03/26 08:34:58;;;;;;;35.40;25.03;;;13.70;1.00;;;;;;5073593;28;20470;-62
2022/03/26 08:37:24;;;;;;;37.97;24.17;;;13.70;1.00;;;;;;5073779;28;20441;-61
2022/03/26 08:39:50;;;;;;;35.87;24.03;;;;;;;;;;5073587;28;20214;-62
2022/03/26 08:42:16;;;;;;;36.60;26.57;;;13.70;1.00;;;;;;5073292;28;20522;-61
2022/03/26 08:44:41;;;;;;;39.53;25.00;;;13.70;1.00;;;;;;5073338;28;20834;-62
2022/03/26 08:47:07;;;;;;;35.40;23.83;;;;;;;;;;5073248;28;20179;-61
2022/03/26 08:49:34;;;;;;;37.13;25.73;;;14.10;1.00;;;;;;5073166;28;20179;-63
2022/03/26 08:52:00;;;;;;;33.40;22.17;;;14.20;1.00;;;;;;5073546;28;20429;-61
2022/03/26 08:54:25;;;;;;;39.17;24.43;;;14.20;1.00;;;;;;5054964;28;20441;-62
2022/03/26 08:56:51;;;;;;;39.27;24.03;;;;;;;;;;5073479;28;20241;-61
2022/03/26 08:59:17;;;;;;;42.73;25.63;;;14.40;1.00;;;;;;5072930;28;20195;-63
2022/03/26 09:01:42;;;;;;;43.90;25.60;;;14.30;1.00;;;;;;5072898;28;20499;-62
2022/03/26 09:04:11;;;;;;;36.27;23.90;;;14.40;1.00;;;;;;5073027;28;20207;-61
2022/03/26 09:06:37;;;;;;;44.10;27.33;;;14.40;1.00;;;;;;5072655;28;20228;-61
2022/03/26 09:09:04;;;;;;;39.87;25.40;;;14.40;1.00;;;;;;5073011;28;20430;-61
2022/03/26 09:11:30;;;;;;;37.70;24.33;;;14.40;1.00;;;;;;5071766;28;20191;-62
2022/03/26 09:13:56;;;;;;;35.93;24.53;;;14.40;1.00;;;;;;5054847;28;20475;-62
2022/03/26 09:16:22;;;;;;;42.20;24.80;;;14.30;1.00;;;;;;5072821;28;20187;-62
2022/03/26 09:18:47;;;;;;;34.47;24.40;;;14.30;1.00;;;;;;5073003;28;20647;-64
2022/03/26 09:21:13;;;;;;;32.07;22.20;;;14.40;1.00;;;;;;5072828;28;20772;-63
2022/03/26 09:23:38;;;;;;;44.03;23.90;;;14.50;1.00;;;;;;5072446;28;20195;-61
2022/03/26 09:26:04;;;;;;;38.67;25.33;;;14.40;1.00;;;;;;5072855;28;20183;-62
2022/03/26 09:28:30;;;;;;;43.07;24.73;;;14.60;1.00;;;;;;5072526;28;20180;-62
2022/03/26 09:30:56;;;;;;;41.13;24.77;;;14.70;1.00;;;;;;5072582;28;20183;-64
2022/03/26 09:33:21;;;;;;;34.80;23.47;;;14.80;1.00;;;;;;5072373;28;20799;-63
2022/03/26 09:35:48;;;;;;;36.03;24.83;;;15.10;1.00;;;;;;5072570;28;20649;-63
2022/03/26 09:38:14;;;;;;;36.97;24.50;;;;;;;;;;5072600;28;20187;-63
2022/03/26 09:40:42;;;;;;;47.43;25.30;;;15.60;1.00;;;;;;5072568;28;20429;-63
2022/03/26 09:43:09;;;;;;;37.60;24.03;;;15.70;1.00;;;;;;5072064;28;20444;-62
2022/03/26 09:45:35;;;;;;;41.33;24.00;;;15.60;1.00;;;;;;5054195;28;20827;-63
2022/03/26 09:48:00;;;;;;;39.00;23.80;;;15.70;1.00;;;;;;5054441;28;20444;-62
2022/03/26 09:50:26;;;;;;;39.20;25.23;;;15.70;1.00;;;;;;5072035;28;21166;-60
2022/03/26 09:52:51;;;;;;;44.40;24.10;;;15.50;1.00;;;;;;5072155;28;20703;-62
2022/03/26 09:55:19;;;;;;;33.90;22.17;;;15.80;1.00;;;;;;5072085;28;20187;-63
2022/03/26 09:57:47;;;;;;;38.80;23.80;;;15.70;1.00;;;;;;5071775;28;20262;-60
2022/03/26 10:00:13;;;;;;;35.53;22.13;;;15.60;1.00;;;;;;5071867;28;20506;-62
2022/03/26 10:02:39;;;;;;;35.10;22.70;;;15.30;1.00;;;;;;5071643;28;20445;-61
2022/03/26 10:05:07;;;;;;;35.63;21.30;;;15.60;1.00;;;;;;5072170;28;20515;-62
2022/03/26 10:07:33;;;;;;;38.20;21.67;;;15.80;1.00;;;;;;5071294;28;20258;-61
2022/03/26 10:10:02;;;;;;;36.50;22.37;;;15.80;1.00;;;;;;5071548;28;20488;-61
2022/03/26 10:12:28;;;;;;;30.67;20.97;;;15.60;1.00;;;;;;5071500;28;20316;-61
2022/03/26 10:14:59;;;;;;;33.40;23.83;;;15.60;1.00;;;;;;5071314;28;20617;-62
2022/03/26 10:17:30;;;;;;;34.00;21.90;;;15.80;1.00;;;;;;5071245;28;20183;-62
2022/03/26 10:19:58;;;;;;;31.97;22.27;;;15.90;1.00;;;;;;5071094;28;20927;-63
2022/03/26 10:22:24;;;;;;;33.40;21.83;;;15.90;1.00;;;;;;5071198;28;20903;-61
2022/03/26 10:24:50;;;;;;;30.23;19.53;;;;;;;;;;5053343;28;20547;-63
2022/03/26 10:27:16;;;;;;;31.00;20.60;;;16.10;1.00;;;;;;5071846;28;20574;-62
2022/03/26 10:29:54;;;;;;;29.37;19.87;;;16.20;1.00;;;;;;5071313;28;20441;-61
2022/03/26 10:32:39;;;;;;;31.50;21.27;;;16.20;1.00;;;;;;5071295;28;20430;-61
2022/03/26 10:35:27;;;;;;;22.97;17.70;;;16.30;1.00;;;;;;5070958;28;20438;-61
2022/03/26 10:37:58;;;;;;;25.33;16.90;;;16.30;1.00;;;;;;5070998;28;20469;-61
2022/03/26 10:40:26;;;;;;;32.47;21.77;;;16.30;1.00;;;;;;5071013;28;20461;-61
2022/03/26 10:42:58;;;;;;;31.63;20.53;;;16.50;1.00;;;;;;5070653;28;20438;-60
2022/03/26 10:45:24;;;;;;;24.73;17.30;;;16.50;1.00;;;;;;5070844;28;20473;-62
2022/03/26 10:47:53;;;;;;;28.97;19.80;;;16.60;1.00;;;;;;5070324;28;20434;-61
2022/03/26 10:50:19;;;;;;;31.27;18.70;;;16.60;1.00;;;;;;5070938;28;20475;-63
2022/03/26 10:52:45;;;;;;;28.97;18.20;;;16.70;1.00;;;;;;5070775;28;20464;-63
2022/03/26 10:55:16;;;;;;;23.97;17.43;;;16.70;1.00;;;;;;5071098;28;20445;-61
2022/03/26 10:57:45;;;;;;;27.00;19.40;;;16.80;1.00;;;;;;5070946;28;20298;-61
2022/03/26 11:00:15;;;;;;;26.20;17.70;;;17.00;1.00;;;;;;5070686;28;20887;-61
2022/03/26 11:02:42;;;;;;;27.27;18.20;;;17.10;1.00;;;;;;5070786;28;20485;-62
2022/03/26 11:05:10;;;;;;;21.57;16.47;;;17.10;1.00;;;;;;5070636;28;20509;-63
2022/03/26 11:07:37;;;;;;;21.23;15.90;;;17.00;1.00;;;;;;5070617;28;20476;-63
2022/03/26 11:10:08;;;;;;;22.60;16.20;;;17.10;1.00;;;;;;5070446;28;20434;-62
2022/03/26 11:12:35;;;;;;;24.00;16.00;;;17.10;1.00;;;;;;5070412;28;20426;-63
2022/03/26 11:15:04;;;;;;;24.77;15.80;;;17.50;1.00;;;;;;5070198;28;20753;-62
2022/03/26 11:18:04;;;;;;;25.37;16.60;;;17.20;1.00;;;;;;5070478;28;20510;-63
2022/03/26 11:20:54;;;;;;;22.37;16.07;;;17.00;1.00;;;;;;5067979;28;20498;-62
2022/03/26 11:23:59;;;;;;;23.33;16.13;;;17.10;1.00;;;;;;5070426;28;20512;-62
2022/03/26 11:26:46;;;;;;;19.17;15.57;;;17.10;1.00;;;;;;5070264;28;20438;-63
2022/03/26 11:29:34;;;;;;;25.67;15.03;;;17.30;1.00;;;;;;5069217;28;20949;-62
2022/03/26 11:32:11;;;;;;;21.50;14.67;;;17.20;1.00;;;;;;5070155;28;20426;-63
2022/03/26 11:34:37;;;;;;;19.40;15.20;;;17.30;1.00;;;;;;5070244;28;20973;-63
2022/03/26 11:37:11;;;;;;;18.90;15.17;;;17.40;1.00;;;;;;5070124;28;20934;-63
2022/03/26 11:39:48;;;;;;;19.30;15.03;;;17.40;1.00;;;;;;5070159;28;20433;-64
2022/03/26 11:42:14;;;;;;;23.17;14.67;;;17.20;1.00;;;;;;5070044;28;20469;-61
2022/03/26 11:50:41;;;;;;;20.57;14.87;;;17.10;1.00;;;;;;5069956;28;20476;-63
2022/03/26 11:53:08;;;;;;;14.07;11.93;;;17.30;1.00;;;;;;5071550;28;20436;-63
2022/03/26 11:55:42;;;;;;;15.60;10.77;;;17.20;1.00;;;;;;5071782;28;20456;-63
2022/03/26 11:58:22;;;;;;;15.50;11.57;;;17.10;1.00;;;;;;5072610;28;20907;-64
2022/03/26 12:01:08;;;;;;;17.47;12.67;;;17.30;1.00;;;;;;5074585;28;20932;-62
2022/03/26 12:03:51;;;;;;;17.13;12.73;;;17.50;1.00;;;;;;5073173;28;20441;-62
2022/03/26 12:09:32;;;;;;;18.80;13.17;;;17.50;1.00;;;;;;5016195;28;20437;-62
2022/03/26 12:12:10;;;;;;;16.33;12.67;;;17.50;1.00;;;;;;5074001;28;20752;-63
2022/03/26 12:15:01;;;;;;;17.07;13.47;;;17.70;1.00;;;;;;5073876;28;20433;-63
2022/03/26 12:18:09;;;;;;;16.53;13.93;;;17.80;1.00;;;;;;5073496;28;20441;-62
2022/03/26 12:20:47;;;;;;;18.30;13.97;;;17.90;1.00;;;;;;5061078;28;20453;-63
2022/03/26 12:23:23;;;;;;;19.73;14.83;;;17.80;1.00;;;;;;5073734;28;20465;-64
2022/03/26 12:25:58;;;;;;;17.70;14.40;;;17.80;1.00;;;;;;5073400;28;20468;-63
2022/03/26 12:28:26;;;;;;;17.57;14.30;;;17.60;1.00;;;;;;5073477;28;20532;-64
2022/03/26 12:30:54;;;;;;;20.97;15.00;;;17.50;1.00;;;;;;5073705;28;20847;-63
2022/03/26 12:33:21;;;;;;;19.90;15.37;;;17.70;1.00;;;;;;5073335;28;20444;-63
2022/03/26 12:35:49;;;;;;;18.10;13.83;;;17.70;1.00;;;;;;5073597;28;21008;-63
2022/03/26 12:38:16;;;;;;;17.80;12.37;;;17.80;1.00;;;;;;5073692;28;20438;-64
2022/03/26 12:40:51;;;;;;;17.13;13.73;;;17.90;1.00;;;;;;5073425;28;20420;-62
2022/03/26 12:43:17;;;;;;;18.17;14.00;;;17.90;1.00;;;;;;5073440;28;20449;-63
2022/03/26 12:45:43;;;;;;;16.70;14.10;;;17.70;1.00;;;;;;5073336;28;20515;-63
2022/03/26 12:48:11;;;;;;;19.77;14.63;;;17.70;1.00;;;;;;5073331;28;20829;-63
2022/03/26 12:50:42;;;;;;;17.63;15.17;;;17.80;1.00;;;;;;5071315;28;20263;-63
2022/03/26 12:53:10;;;;;;;22.00;17.13;;;17.50;1.00;;;;;;5072982;28;20463;-63
2022/03/26 12:55:36;;;;;;;20.40;15.83;;;;;;;;;;5072594;28;20442;-64
2022/03/26 13:01:05;;;;;;;19.43;15.00;;;17.60;1.00;;;;;;5073401;28;20547;-63